Forside
METAR-TAF:

METAR-TAF

Lufthavne :

Sheboygan County Memorial Airport

Sheboygan, Wisconsin, USA

Breddekreds: 43-46-35N, længdekreds: 087-50-59W, højde: 228 m

Aktuelle vejr

Denne rapport blev lavet for 15 minutter siden, kl. 10:53 UTC
Vind 13 kt fra nordnordvest med vindstød på up til 21 kt
Temperatur 7°C
Fugtighed 81%
Tryk 1013 hPa
Sigt: 16.1 km
Overskyet i en højde af 1200 ft

METAR: KSBM 231053Z AUTO 33013G21KT 10SM OVC012 07/04 A2991 RMK AO2 SLP129 T00670044

Tid: 06:08 (11:08 UTC)


TAF: fraværende

Vejrobservationer og prognoser fra mere end 4000 lufthavne (METAR og TAF).

De gule og røde prikker repræsenterer de meteorologiske stationer.

Flyt musen over at se navnet på stationen.

Så klik over at se vejr observationer og prognoser.

At skifte det kort: Klik på de grønne knapper med et sort kors for at zoome ind; på den grønne knap med en bindestreg for at zoome ud; eller på de grønne pile for tilstødende kort.


METAR-TAF: